sensor_id;sensor_type;location;lat;lon;timestamp;pressure;altitude;pressure_sealevel;temperature;humidity
78121;BME280;67585;44.802;10.332;2023-04-25T00:00:33;100166.09;;;14.78;59.79
78121;BME280;67585;44.802;10.332;2023-04-25T00:02:59;100152.28;;;14.93;59.01
78121;BME280;67585;44.802;10.332;2023-04-25T00:05:25;100141.47;;;14.41;61.05
78121;BME280;67585;44.802;10.332;2023-04-25T00:07:51;100152.84;;;14.24;62.42
78121;BME280;67585;44.802;10.332;2023-04-25T00:10:17;100099.72;;;14.09;61.92
78121;BME280;67585;44.802;10.332;2023-04-25T00:12:42;100145.28;;;14.40;61.71
78121;BME280;67585;44.802;10.332;2023-04-25T00:15:08;100157.97;;;14.26;62.26
78121;BME280;67585;44.802;10.332;2023-04-25T00:17:34;100133.44;;;14.17;62.47
78121;BME280;67585;44.802;10.332;2023-04-25T00:20:00;100151.22;;;14.61;60.70
78121;BME280;67585;44.802;10.332;2023-04-25T00:22:29;100141.31;;;14.51;61.12
78121;BME280;67585;44.802;10.332;2023-04-25T00:24:55;100132.75;;;14.44;61.19
78121;BME280;67585;44.802;10.332;2023-04-25T00:27:22;100138.75;;;14.41;61.37
78121;BME280;67585;44.802;10.332;2023-04-25T00:29:47;100152.19;;;14.65;61.26
78121;BME280;67585;44.802;10.332;2023-04-25T00:32:13;100152.72;;;14.48;61.81
78121;BME280;67585;44.802;10.332;2023-04-25T00:34:38;100159.25;;;14.47;62.27
78121;BME280;67585;44.802;10.332;2023-04-25T00:37:03;100127.19;;;14.55;61.30
78121;BME280;67585;44.802;10.332;2023-04-25T00:39:30;100144.66;;;14.62;61.86
78121;BME280;67585;44.802;10.332;2023-04-25T00:41:55;100140.19;;;14.52;61.78
78121;BME280;67585;44.802;10.332;2023-04-25T00:44:22;100145.44;;;14.30;62.97
78121;BME280;67585;44.802;10.332;2023-04-25T00:46:49;100121.31;;;13.77;64.32
78121;BME280;67585;44.802;10.332;2023-04-25T00:49:16;100113.66;;;14.36;61.80
78121;BME280;67585;44.802;10.332;2023-04-25T00:51:43;100136.53;;;14.10;62.94
78121;BME280;67585;44.802;10.332;2023-04-25T00:54:11;100125.75;;;14.24;62.75
78121;BME280;67585;44.802;10.332;2023-04-25T00:56:37;100128.56;;;13.81;64.55
78121;BME280;67585;44.802;10.332;2023-04-25T00:59:03;100135.06;;;13.99;63.97
78121;BME280;67585;44.802;10.332;2023-04-25T01:01:28;100134.56;;;13.78;64.40
78121;BME280;67585;44.802;10.332;2023-04-25T01:03:55;100141.59;;;13.98;64.52
78121;BME280;67585;44.802;10.332;2023-04-25T01:06:21;100116.09;;;13.61;64.97
78121;BME280;67585;44.802;10.332;2023-04-25T01:08:47;100140.94;;;14.06;64.01
78121;BME280;67585;44.802;10.332;2023-04-25T01:11:13;100112.91;;;13.97;64.09
78121;BME280;67585;44.802;10.332;2023-04-25T01:13:39;100123.88;;;14.06;64.01
78121;BME280;67585;44.802;10.332;2023-04-25T01:16:04;100123.81;;;13.92;64.09
78121;BME280;67585;44.802;10.332;2023-04-25T01:18:30;100130.53;;;14.14;63.50
78121;BME280;67585;44.802;10.332;2023-04-25T01:20:56;100137.09;;;14.26;63.96
78121;BME280;67585;44.802;10.332;2023-04-25T01:23:23;100138.94;;;13.93;65.27
78121;BME280;67585;44.802;10.332;2023-04-25T01:25:49;100133.25;;;13.76;65.21
78121;BME280;67585;44.802;10.332;2023-04-25T01:28:15;100134.53;;;14.35;63.53
78121;BME280;67585;44.802;10.332;2023-04-25T01:30:41;100123.31;;;13.47;65.48
78121;BME280;67585;44.802;10.332;2023-04-25T01:33:08;100127.13;;;13.46;65.97
78121;BME280;67585;44.802;10.332;2023-04-25T01:35:34;100117.44;;;13.45;66.79
78121;BME280;67585;44.802;10.332;2023-04-25T01:38:00;100136.09;;;13.84;65.09
78121;BME280;67585;44.802;10.332;2023-04-25T01:40:27;100107.28;;;13.94;64.54
78121;BME280;67585;44.802;10.332;2023-04-25T01:42:52;100132.06;;;13.63;65.82
78121;BME280;67585;44.802;10.332;2023-04-25T01:45:18;100127.97;;;13.84;65.20
78121;BME280;67585;44.802;10.332;2023-04-25T01:47:44;100119.69;;;14.14;63.81
78121;BME280;67585;44.802;10.332;2023-04-25T01:50:14;100131.84;;;13.97;64.98
78121;BME280;67585;44.802;10.332;2023-04-25T01:52:40;100134.41;;;13.70;64.83
78121;BME280;67585;44.802;10.332;2023-04-25T01:55:06;100131.41;;;13.71;65.28
78121;BME280;67585;44.802;10.332;2023-04-25T01:57:31;100139.41;;;13.81;65.49
78121;BME280;67585;44.802;10.332;2023-04-25T02:00:02;100132.13;;;13.58;65.68
78121;BME280;67585;44.802;10.332;2023-04-25T02:02:28;100114.56;;;13.93;64.95
78121;BME280;67585;44.802;10.332;2023-04-25T02:04:53;100134.88;;;13.77;65.64
78121;BME280;67585;44.802;10.332;2023-04-25T02:07:22;100126.75;;;13.77;65.51
78121;BME280;67585;44.802;10.332;2023-04-25T02:09:47;100125.00;;;13.19;67.42
78121;BME280;67585;44.802;10.332;2023-04-25T02:12:13;100133.00;;;13.05;67.33
78121;BME280;67585;44.802;10.332;2023-04-25T02:14:38;100098.97;;;13.47;65.71
78121;BME280;67585;44.802;10.332;2023-04-25T02:17:04;100136.72;;;13.38;66.76
78121;BME280;67585;44.802;10.332;2023-04-25T02:19:30;100110.03;;;13.51;64.76
78121;BME280;67585;44.802;10.332;2023-04-25T02:21:56;100087.44;;;13.17;66.16
78121;BME280;67585;44.802;10.332;2023-04-25T02:24:22;100123.84;;;13.49;65.92
78121;BME280;67585;44.802;10.332;2023-04-25T02:26:53;100112.56;;;13.18;66.34
78121;BME280;67585;44.802;10.332;2023-04-25T02:29:20;100121.03;;;13.11;67.19
78121;BME280;67585;44.802;10.332;2023-04-25T02:31:46;100132.25;;;13.23;67.08
78121;BME280;67585;44.802;10.332;2023-04-25T02:34:11;100099.88;;;12.94;67.30
78121;BME280;67585;44.802;10.332;2023-04-25T02:36:36;100097.75;;;12.62;68.16
78121;BME280;67585;44.802;10.332;2023-04-25T02:39:02;100130.63;;;12.98;67.71
78121;BME280;67585;44.802;10.332;2023-04-25T02:41:28;100107.53;;;13.11;67.21
78121;BME280;67585;44.802;10.332;2023-04-25T02:43:54;100116.16;;;13.37;66.08
78121;BME280;67585;44.802;10.332;2023-04-25T02:46:19;100114.38;;;12.79;68.54
78121;BME280;67585;44.802;10.332;2023-04-25T02:48:45;100083.19;;;12.87;67.50
78121;BME280;67585;44.802;10.332;2023-04-25T02:51:10;100090.09;;;12.74;67.78
78121;BME280;67585;44.802;10.332;2023-04-25T02:53:36;100100.22;;;12.88;67.47
78121;BME280;67585;44.802;10.332;2023-04-25T02:56:01;100108.72;;;13.00;68.07
78121;BME280;67585;44.802;10.332;2023-04-25T02:58:27;100105.63;;;13.12;67.84
78121;BME280;67585;44.802;10.332;2023-04-25T03:00:53;100083.06;;;12.97;66.97
78121;BME280;67585;44.802;10.332;2023-04-25T03:03:18;100078.34;;;13.08;66.74
78121;BME280;67585;44.802;10.332;2023-04-25T03:05:48;100089.75;;;13.29;66.39
78121;BME280;67585;44.802;10.332;2023-04-25T03:08:13;100047.97;;;12.44;68.41
78121;BME280;67585;44.802;10.332;2023-04-25T03:10:39;100075.25;;;12.43;70.40
78121;BME280;67585;44.802;10.332;2023-04-25T03:13:04;100082.69;;;12.56;69.57
78121;BME280;67585;44.802;10.332;2023-04-25T03:15:30;100093.19;;;12.33;70.30
78121;BME280;67585;44.802;10.332;2023-04-25T03:17:56;100086.66;;;12.64;69.91
78121;BME280;67585;44.802;10.332;2023-04-25T03:20:22;100066.72;;;12.30;70.07
78121;BME280;67585;44.802;10.332;2023-04-25T03:22:47;100056.53;;;12.51;69.48
78121;BME280;67585;44.802;10.332;2023-04-25T03:25:12;100062.41;;;12.58;69.14
78121;BME280;67585;44.802;10.332;2023-04-25T03:27:38;100089.84;;;12.95;68.10
78121;BME280;67585;44.802;10.332;2023-04-25T03:30:04;100087.38;;;12.74;68.21
78121;BME280;67585;44.802;10.332;2023-04-25T03:32:30;100070.13;;;12.70;68.64
78121;BME280;67585;44.802;10.332;2023-04-25T03:34:55;100060.38;;;12.69;68.95
78121;BME280;67585;44.802;10.332;2023-04-25T03:37:20;100097.28;;;12.84;68.45
78121;BME280;67585;44.802;10.332;2023-04-25T03:39:46;100060.50;;;13.07;67.49
78121;BME280;67585;44.802;10.332;2023-04-25T03:42:11;100084.50;;;12.90;68.92
78121;BME280;67585;44.802;10.332;2023-04-25T03:44:37;100070.88;;;13.00;68.66
78121;BME280;67585;44.802;10.332;2023-04-25T03:47:02;100048.38;;;13.04;67.99
78121;BME280;67585;44.802;10.332;2023-04-25T03:49:28;100081.09;;;13.03;68.85
78121;BME280;67585;44.802;10.332;2023-04-25T03:51:53;100062.25;;;12.74;68.04
78121;BME280;67585;44.802;10.332;2023-04-25T03:54:19;100083.06;;;13.21;67.72
78121;BME280;67585;44.802;10.332;2023-04-25T03:56:44;100077.72;;;13.16;67.77
78121;BME280;67585;44.802;10.332;2023-04-25T03:59:10;100086.69;;;13.12;67.82
78121;BME280;67585;44.802;10.332;2023-04-25T04:01:35;100044.59;;;12.81;67.96
78121;BME280;67585;44.802;10.332;2023-04-25T04:04:01;100066.78;;;13.02;68.30
78121;BME280;67585;44.802;10.332;2023-04-25T04:06:26;100076.53;;;13.03;68.35
78121;BME280;67585;44.802;10.332;2023-04-25T04:08:51;100096.47;;;12.83;68.31
78121;BME280;67585;44.802;10.332;2023-04-25T04:11:17;100085.72;;;13.02;67.70
78121;BME280;67585;44.802;10.332;2023-04-25T04:13:42;100093.19;;;12.63;68.21
78121;BME280;67585;44.802;10.332;2023-04-25T04:16:08;100047.53;;;12.32;67.88
78121;BME280;67585;44.802;10.332;2023-04-25T04:18:33;100096.84;;;12.48;68.75
78121;BME280;67585;44.802;10.332;2023-04-25T04:20:59;100078.56;;;12.34;68.55
78121;BME280;67585;44.802;10.332;2023-04-25T04:23:25;100115.75;;;12.43;69.51
78121;BME280;67585;44.802;10.332;2023-04-25T04:25:52;100110.84;;;12.50;68.63
78121;BME280;67585;44.802;10.332;2023-04-25T04:28:19;100108.06;;;12.60;67.84
78121;BME280;67585;44.802;10.332;2023-04-25T04:30:45;100121.38;;;12.51;69.61
78121;BME280;67585;44.802;10.332;2023-04-25T04:33:11;100122.31;;;12.66;68.62
78121;BME280;67585;44.802;10.332;2023-04-25T04:35:37;100124.31;;;12.84;67.41
78121;BME280;67585;44.802;10.332;2023-04-25T04:38:03;100139.25;;;13.00;67.79
78121;BME280;67585;44.802;10.332;2023-04-25T04:40:28;100120.50;;;12.85;66.88
78121;BME280;67585;44.802;10.332;2023-04-25T04:42:56;100121.63;;;12.84;67.23
78121;BME280;67585;44.802;10.332;2023-04-25T04:45:23;100138.19;;;13.01;67.40
78121;BME280;67585;44.802;10.332;2023-04-25T04:47:49;100143.28;;;13.03;67.28
78121;BME280;67585;44.802;10.332;2023-04-25T04:50:15;100150.94;;;12.96;67.60
78121;BME280;67585;44.802;10.332;2023-04-25T04:52:41;100154.06;;;12.84;68.40
78121;BME280;67585;44.802;10.332;2023-04-25T04:55:08;100157.16;;;12.96;68.30
78121;BME280;67585;44.802;10.332;2023-04-25T04:57:34;100134.34;;;12.78;67.83
78121;BME280;67585;44.802;10.332;2023-04-25T05:00:00;100153.28;;;12.78;68.56
78121;BME280;67585;44.802;10.332;2023-04-25T05:02:26;100119.69;;;12.60;67.94
78121;BME280;67585;44.802;10.332;2023-04-25T05:04:52;100139.72;;;12.54;68.90
78121;BME280;67585;44.802;10.332;2023-04-25T05:07:18;100155.66;;;12.56;68.98
78121;BME280;67585;44.802;10.332;2023-04-25T05:09:44;100133.22;;;12.26;68.87
78121;BME280;67585;44.802;10.332;2023-04-25T05:12:09;100169.38;;;12.25;69.17
78121;BME280;67585;44.802;10.332;2023-04-25T05:14:35;100173.91;;;12.35;69.74
78121;BME280;67585;44.802;10.332;2023-04-25T05:17:00;100183.31;;;12.77;68.74
78121;BME280;67585;44.802;10.332;2023-04-25T05:19:26;100193.56;;;12.46;69.32
78121;BME280;67585;44.802;10.332;2023-04-25T05:21:51;100197.38;;;12.39;69.55
78121;BME280;67585;44.802;10.332;2023-04-25T05:24:17;100175.59;;;12.26;69.27
78121;BME280;67585;44.802;10.332;2023-04-25T05:26:43;100170.03;;;12.46;70.44
78121;BME280;67585;44.802;10.332;2023-04-25T05:29:08;100199.50;;;12.43;69.48
78121;BME280;67585;44.802;10.332;2023-04-25T05:31:36;100174.06;;;12.14;68.93
78121;BME280;67585;44.802;10.332;2023-04-25T05:34:02;100190.91;;;11.96;70.03
78121;BME280;67585;44.802;10.332;2023-04-25T05:36:27;100183.50;;;12.17;69.11
78121;BME280;67585;44.802;10.332;2023-04-25T05:38:53;100207.34;;;12.44;68.71
78121;BME280;67585;44.802;10.332;2023-04-25T05:41:18;100199.75;;;12.46;68.73
78121;BME280;67585;44.802;10.332;2023-04-25T05:43:44;100188.72;;;12.77;66.93
78121;BME280;67585;44.802;10.332;2023-04-25T05:46:12;100215.97;;;13.10;65.94
78121;BME280;67585;44.802;10.332;2023-04-25T05:48:39;100198.66;;;13.11;65.80
78121;BME280;67585;44.802;10.332;2023-04-25T05:51:05;100191.41;;;13.35;65.30
78121;BME280;67585;44.802;10.332;2023-04-25T05:53:30;100221.38;;;13.10;66.33
78121;BME280;67585;44.802;10.332;2023-04-25T05:55:56;100219.00;;;13.03;67.32
78121;BME280;67585;44.802;10.332;2023-04-25T05:58:21;100226.34;;;12.68;68.36
78121;BME280;67585;44.802;10.332;2023-04-25T06:00:47;100222.84;;;12.68;67.97
78121;BME280;67585;44.802;10.332;2023-04-25T06:03:12;100199.75;;;12.80;67.81
78121;BME280;67585;44.802;10.332;2023-04-25T06:05:41;100225.25;;;12.98;67.19
78121;BME280;67585;44.802;10.332;2023-04-25T06:08:07;100234.94;;;12.75;68.53
78121;BME280;67585;44.802;10.332;2023-04-25T06:10:32;100237.72;;;12.65;69.01
78121;BME280;67585;44.802;10.332;2023-04-25T06:12:57;100244.59;;;12.87;68.31
78121;BME280;67585;44.802;10.332;2023-04-25T06:15:23;100240.56;;;12.84;68.52
78121;BME280;67585;44.802;10.332;2023-04-25T06:17:48;100227.34;;;12.77;68.66
78121;BME280;67585;44.802;10.332;2023-04-25T06:20:14;100229.53;;;13.04;68.83
78121;BME280;67585;44.802;10.332;2023-04-25T06:22:40;100228.00;;;12.93;68.58
78121;BME280;67585;44.802;10.332;2023-04-25T06:25:06;100225.72;;;13.11;68.60
78121;BME280;67585;44.802;10.332;2023-04-25T06:27:33;100240.84;;;13.41;67.82
78121;BME280;67585;44.802;10.332;2023-04-25T06:29:58;100190.38;;;13.26;67.39
78121;BME280;67585;44.802;10.332;2023-04-25T06:32:24;100213.06;;;13.54;66.42
78121;BME280;67585;44.802;10.332;2023-04-25T06:34:57;100243.59;;;14.03;66.61
78121;BME280;67585;44.802;10.332;2023-04-25T06:37:23;100247.75;;;14.38;64.79
78121;BME280;67585;44.802;10.332;2023-04-25T06:39:48;100154.88;;;13.76;65.41
78121;BME280;67585;44.802;10.332;2023-04-25T06:42:17;100226.81;;;14.25;64.83
78121;BME280;67585;44.802;10.332;2023-04-25T06:44:43;100241.28;;;14.53;64.00
78121;BME280;67585;44.802;10.332;2023-04-25T06:47:08;100234.44;;;14.42;64.95
78121;BME280;67585;44.802;10.332;2023-04-25T06:49:33;100237.78;;;14.52;64.45
78121;BME280;67585;44.802;10.332;2023-04-25T06:51:59;100201.38;;;14.59;64.30
78121;BME280;67585;44.802;10.332;2023-04-25T06:54:24;100210.25;;;14.64;64.50
78121;BME280;67585;44.802;10.332;2023-04-25T06:56:53;100247.16;;;14.41;65.05
78121;BME280;67585;44.802;10.332;2023-04-25T06:59:18;100244.88;;;14.10;65.85
78121;BME280;67585;44.802;10.332;2023-04-25T07:01:44;100252.34;;;14.38;65.66
78121;BME280;67585;44.802;10.332;2023-04-25T07:04:09;100212.31;;;14.35;65.64
78121;BME280;67585;44.802;10.332;2023-04-25T07:06:35;100236.47;;;14.31;66.02
78121;BME280;67585;44.802;10.332;2023-04-25T07:09:03;100229.50;;;14.63;65.71
78121;BME280;67585;44.802;10.332;2023-04-25T07:11:33;100239.00;;;14.79;65.43
78121;BME280;67585;44.802;10.332;2023-04-25T07:13:59;100200.72;;;14.48;65.04
78121;BME280;67585;44.802;10.332;2023-04-25T07:16:25;100192.91;;;14.79;63.75
78121;BME280;67585;44.802;10.332;2023-04-25T07:18:50;100222.03;;;14.36;65.46
78121;BME280;67585;44.802;10.332;2023-04-25T07:21:16;100235.34;;;14.51;65.71
78121;BME280;67585;44.802;10.332;2023-04-25T07:23:41;100202.63;;;13.90;67.00
78121;BME280;67585;44.802;10.332;2023-04-25T07:26:07;100246.22;;;14.13;68.29
78121;BME280;67585;44.802;10.332;2023-04-25T07:28:33;100252.72;;;14.50;66.83
78121;BME280;67585;44.802;10.332;2023-04-25T07:31:01;100257.94;;;14.27;68.39
78121;BME280;67585;44.802;10.332;2023-04-25T07:33:27;100254.56;;;14.36;67.75
78121;BME280;67585;44.802;10.332;2023-04-25T07:35:53;100260.06;;;14.49;67.06
78121;BME280;67585;44.802;10.332;2023-04-25T07:38:19;100266.56;;;14.67;67.14
78121;BME280;67585;44.802;10.332;2023-04-25T07:40:44;100263.88;;;14.67;66.74
78121;BME280;67585;44.802;10.332;2023-04-25T07:43:10;100216.91;;;14.34;66.93
78121;BME280;67585;44.802;10.332;2023-04-25T07:45:37;100270.97;;;14.63;67.53
78121;BME280;67585;44.802;10.332;2023-04-25T07:48:05;100268.31;;;14.77;67.07
78121;BME280;67585;44.802;10.332;2023-04-25T07:50:31;100253.25;;;14.52;67.73
78121;BME280;67585;44.802;10.332;2023-04-25T07:52:57;100273.41;;;14.65;67.82
78121;BME280;67585;44.802;10.332;2023-04-25T07:55:22;100274.84;;;14.76;66.33
78121;BME280;67585;44.802;10.332;2023-04-25T07:57:48;100263.13;;;14.43;65.86
78121;BME280;67585;44.802;10.332;2023-04-25T08:00:14;100274.91;;;14.52;65.34
78121;BME280;67585;44.802;10.332;2023-04-25T08:02:40;100261.97;;;14.30;66.72
78121;BME280;67585;44.802;10.332;2023-04-25T08:05:05;100254.34;;;14.70;65.73
78121;BME280;67585;44.802;10.332;2023-04-25T08:07:33;100267.97;;;14.65;65.92
78121;BME280;67585;44.802;10.332;2023-04-25T08:09:59;100271.63;;;14.74;65.24
78121;BME280;67585;44.802;10.332;2023-04-25T08:12:24;100252.13;;;14.53;64.38
78121;BME280;67585;44.802;10.332;2023-04-25T08:14:50;100264.44;;;14.83;57.69
78121;BME280;67585;44.802;10.332;2023-04-25T08:17:16;100277.81;;;14.93;55.08
78121;BME280;67585;44.802;10.332;2023-04-25T08:19:41;100297.34;;;15.09;54.63
78121;BME280;67585;44.802;10.332;2023-04-25T08:22:07;100269.09;;;14.96;53.43
78121;BME280;67585;44.802;10.332;2023-04-25T08:24:32;100292.34;;;15.16;53.30
78121;BME280;67585;44.802;10.332;2023-04-25T08:26:58;100310.88;;;15.28;52.91
78121;BME280;67585;44.802;10.332;2023-04-25T08:29:24;100308.47;;;14.94;54.09
78121;BME280;67585;44.802;10.332;2023-04-25T08:31:51;100304.81;;;14.85;54.38
78121;BME280;67585;44.802;10.332;2023-04-25T08:34:18;100318.94;;;15.01;54.54
78121;BME280;67585;44.802;10.332;2023-04-25T08:36:44;100263.41;;;14.79;54.63
78121;BME280;67585;44.802;10.332;2023-04-25T08:39:10;100318.09;;;15.19;54.39
78121;BME280;67585;44.802;10.332;2023-04-25T08:41:37;100305.69;;;15.32;53.80
78121;BME280;67585;44.802;10.332;2023-04-25T08:44:03;100310.97;;;15.70;53.13
78121;BME280;67585;44.802;10.332;2023-04-25T08:46:30;100316.72;;;15.35;54.58
78121;BME280;67585;44.802;10.332;2023-04-25T08:48:58;100326.50;;;15.50;54.06
78121;BME280;67585;44.802;10.332;2023-04-25T08:51:25;100314.25;;;15.39;54.30
78121;BME280;67585;44.802;10.332;2023-04-25T08:53:53;100346.25;;;15.23;55.07
78121;BME280;67585;44.802;10.332;2023-04-25T08:56:19;100325.66;;;15.22;53.97
78121;BME280;67585;44.802;10.332;2023-04-25T08:58:50;100328.38;;;15.36;54.24
78121;BME280;67585;44.802;10.332;2023-04-25T09:01:16;100323.41;;;15.57;54.29
78121;BME280;67585;44.802;10.332;2023-04-25T09:03:44;100338.44;;;15.35;54.40
78121;BME280;67585;44.802;10.332;2023-04-25T09:06:17;100330.28;;;15.35;53.75
78121;BME280;67585;44.802;10.332;2023-04-25T09:08:50;100347.50;;;16.33;51.07
78121;BME280;67585;44.802;10.332;2023-04-25T09:11:15;100320.41;;;16.28;51.16
78121;BME280;67585;44.802;10.332;2023-04-25T09:13:41;100340.63;;;16.35;51.48
78121;BME280;67585;44.802;10.332;2023-04-25T09:16:06;100320.13;;;16.65;50.41
78121;BME280;67585;44.802;10.332;2023-04-25T09:18:34;100347.19;;;16.20;51.80
78121;BME280;67585;44.802;10.332;2023-04-25T09:21:06;100351.53;;;16.08;50.99
78121;BME280;67585;44.802;10.332;2023-04-25T09:23:44;100348.09;;;16.16;51.19
78121;BME280;67585;44.802;10.332;2023-04-25T09:26:14;100328.06;;;16.90;49.38
78121;BME280;67585;44.802;10.332;2023-04-25T09:28:39;100336.59;;;17.19;48.90
78121;BME280;67585;44.802;10.332;2023-04-25T09:31:05;100339.94;;;17.16;48.46
78121;BME280;67585;44.802;10.332;2023-04-25T09:33:32;100337.81;;;17.36;48.03
78121;BME280;67585;44.802;10.332;2023-04-25T09:36:08;100340.78;;;17.03;48.96
78121;BME280;67585;44.802;10.332;2023-04-25T09:38:42;100316.50;;;17.38;47.87
78121;BME280;67585;44.802;10.332;2023-04-25T09:41:09;100342.31;;;17.71;47.24
78121;BME280;67585;44.802;10.332;2023-04-25T09:43:36;100307.38;;;17.34;47.69
78121;BME280;67585;44.802;10.332;2023-04-25T09:46:02;100310.47;;;18.47;44.89
78121;BME280;67585;44.802;10.332;2023-04-25T09:48:29;100313.19;;;18.29;44.61
78121;BME280;67585;44.802;10.332;2023-04-25T09:53:30;100323.03;;;17.90;46.70
78121;BME280;67585;44.802;10.332;2023-04-25T09:55:59;100307.00;;;17.58;46.31
78121;BME280;67585;44.802;10.332;2023-04-25T09:58:25;100330.22;;;18.44;45.38
78121;BME280;67585;44.802;10.332;2023-04-25T10:00:59;100317.41;;;17.56;46.85
78121;BME280;67585;44.802;10.332;2023-04-25T10:03:25;100327.47;;;16.79;48.60
78121;BME280;67585;44.802;10.332;2023-04-25T10:05:51;100314.25;;;18.02;46.40
78121;BME280;67585;44.802;10.332;2023-04-25T10:08:18;100326.53;;;17.60;47.10
78121;BME280;67585;44.802;10.332;2023-04-25T10:10:44;100320.16;;;18.88;44.07
78121;BME280;67585;44.802;10.332;2023-04-25T10:13:11;100311.28;;;19.26;43.54
78121;BME280;67585;44.802;10.332;2023-04-25T10:15:36;100317.28;;;17.92;47.16
78121;BME280;67585;44.802;10.332;2023-04-25T10:18:02;100290.75;;;18.67;45.39
78121;BME280;67585;44.802;10.332;2023-04-25T10:20:29;100289.47;;;18.99;44.98
78121;BME280;67585;44.802;10.332;2023-04-25T10:22:58;100296.69;;;18.95;44.32
78121;BME280;67585;44.802;10.332;2023-04-25T10:25:28;100311.63;;;19.15;44.84
78121;BME280;67585;44.802;10.332;2023-04-25T10:27:54;100295.97;;;17.63;48.02
78121;BME280;67585;44.802;10.332;2023-04-25T10:30:19;100287.22;;;18.41;46.21
78121;BME280;67585;44.802;10.332;2023-04-25T10:32:46;100283.56;;;18.80;45.98
78121;BME280;67585;44.802;10.332;2023-04-25T10:35:23;100270.47;;;17.99;47.75
78121;BME280;67585;44.802;10.332;2023-04-25T10:40:24;100254.78;;;19.00;45.56
78121;BME280;67585;44.802;10.332;2023-04-25T10:42:52;100256.56;;;18.87;45.35
78121;BME280;67585;44.802;10.332;2023-04-25T10:45:18;100247.75;;;18.47;46.03
78121;BME280;67585;44.802;10.332;2023-04-25T10:47:45;100247.91;;;18.68;46.46
78121;BME280;67585;44.802;10.332;2023-04-25T10:50:11;100282.09;;;18.30;46.96
78121;BME280;67585;44.802;10.332;2023-04-25T10:52:38;100273.56;;;18.32;47.57
78121;BME280;67585;44.802;10.332;2023-04-25T10:55:05;100282.09;;;18.83;47.11
78121;BME280;67585;44.802;10.332;2023-04-25T10:57:41;100286.13;;;18.94;46.42
78121;BME280;67585;44.802;10.332;2023-04-25T11:00:08;100287.63;;;17.99;48.10
78121;BME280;67585;44.802;10.332;2023-04-25T11:02:40;100278.69;;;18.42;46.97
78121;BME280;67585;44.802;10.332;2023-04-25T11:05:06;100263.59;;;18.01;48.11
78121;BME280;67585;44.802;10.332;2023-04-25T11:07:52;100268.47;;;18.91;45.99
78121;BME280;67585;44.802;10.332;2023-04-25T11:10:19;100265.97;;;19.63;44.01
78121;BME280;67585;44.802;10.332;2023-04-25T11:12:46;100267.63;;;19.08;45.08
78121;BME280;67585;44.802;10.332;2023-04-25T11:15:12;100251.16;;;19.34;44.86
78121;BME280;67585;44.802;10.332;2023-04-25T11:17:38;100271.97;;;19.00;44.93
78121;BME280;67585;44.802;10.332;2023-04-25T11:20:06;100278.72;;;18.33;47.77
78121;BME280;67585;44.802;10.332;2023-04-25T11:22:34;100271.97;;;18.83;46.79
78121;BME280;67585;44.802;10.332;2023-04-25T11:25:05;100243.25;;;18.94;45.68
78121;BME280;67585;44.802;10.332;2023-04-25T11:27:30;100269.25;;;18.66;46.76
78121;BME280;67585;44.802;10.332;2023-04-25T11:29:56;100266.53;;;18.31;46.28
78121;BME280;67585;44.802;10.332;2023-04-25T11:32:21;100269.09;;;18.62;46.58
78121;BME280;67585;44.802;10.332;2023-04-25T11:34:47;100254.41;;;19.19;44.58
78121;BME280;67585;44.802;10.332;2023-04-25T11:37:12;100249.19;;;18.88;45.62
78121;BME280;67585;44.802;10.332;2023-04-25T11:39:42;100225.16;;;19.28;45.25
78121;BME280;67585;44.802;10.332;2023-04-25T11:42:08;100252.72;;;18.88;45.80
78121;BME280;67585;44.802;10.332;2023-04-25T11:44:33;100232.75;;;19.05;43.79
78121;BME280;67585;44.802;10.332;2023-04-25T11:46:59;100235.19;;;17.93;46.51
78121;BME280;67585;44.802;10.332;2023-04-25T11:49:30;100255.00;;;18.86;46.02
78121;BME280;67585;44.802;10.332;2023-04-25T11:51:56;100263.81;;;18.92;45.26
78121;BME280;67585;44.802;10.332;2023-04-25T11:54:22;100243.72;;;19.43;43.39
78121;BME280;67585;44.802;10.332;2023-04-25T11:56:48;100241.38;;;19.63;43.66
78121;BME280;67585;44.802;10.332;2023-04-25T11:59:13;100249.56;;;19.25;44.78
78121;BME280;67585;44.802;10.332;2023-04-25T12:01:40;100252.22;;;19.51;43.94
78121;BME280;67585;44.802;10.332;2023-04-25T12:04:23;100220.75;;;19.45;43.87
78121;BME280;67585;44.802;10.332;2023-04-25T12:06:53;100233.91;;;19.13;44.16
78121;BME280;67585;44.802;10.332;2023-04-25T12:09:30;100230.25;;;18.74;45.11
78121;BME280;67585;44.802;10.332;2023-04-25T12:11:57;100222.19;;;19.04;44.52
78121;BME280;67585;44.802;10.332;2023-04-25T12:14:29;100232.38;;;19.33;43.99
78121;BME280;67585;44.802;10.332;2023-04-25T12:16:56;100235.44;;;19.70;42.81
78121;BME280;67585;44.802;10.332;2023-04-25T12:19:25;100219.94;;;19.82;41.92
78121;BME280;67585;44.802;10.332;2023-04-25T12:21:51;100195.84;;;20.39;40.05
78121;BME280;67585;44.802;10.332;2023-04-25T12:24:21;100171.69;;;19.57;41.91
78121;BME280;67585;44.802;10.332;2023-04-25T12:26:59;100216.66;;;19.30;42.43
78121;BME280;67585;44.802;10.332;2023-04-25T12:29:27;100217.47;;;19.21;43.34
78121;BME280;67585;44.802;10.332;2023-04-25T12:31:54;100203.41;;;19.79;41.33
78121;BME280;67585;44.802;10.332;2023-04-25T12:34:20;100204.22;;;18.94;43.52
78121;BME280;67585;44.802;10.332;2023-04-25T12:36:47;100192.22;;;20.14;41.18
78121;BME280;67585;44.802;10.332;2023-04-25T12:39:16;100200.88;;;20.16;40.50
78121;BME280;67585;44.802;10.332;2023-04-25T12:41:42;100189.22;;;19.85;40.46